Muscat, Oman
Current Conditions -  °F | °C
As of 2:50 AM on Saturday 29 Nov 2014 (Local Time) from OOMS Reporting Station
Clear Clear  
Wind Chill: 75°   Ceiling: Unl
Heat Index: 75°   Visibility: 6mi
Dew Point: 59°   Wind: 6mph
Humidity: 57%   Direction: 270°W
Pressure: 29.94"   Gusts: NA
Location:  23.61°N, 58.54°E
Report Text: OOMS 282250Z 27005KT CAVOK 24/15 Q1014 NOSIG
Loading
Personal Weather Stations






























Interactive Weather Map New forecast layout! Learn more

10-Day Weather Forecast

Advertisements
Track Severe Weather on mobile